Time;durP1;ratioP1;P1;durP2;ratioP2;P2;SDS_P1;SDS_P2;PMS_P1;PMS_P2;Temp;Humidity;BMP_temperature;BMP_pressure;BME280_temperature;BME280_humidity;BME280_pressure;Samples;Min_cycle;Max_cycle;Signal;HPM_P1;HPM_P2
2023/01/03 00:00:31;;;;;;;5.63;2.30;;;;;;;4.71;100.00;99965.22;4967723;28;20674;-72
2023/01/03 00:03:00;;;;;;;5.03;2.58;;;;;;;4.72;100.00;99963.53;4967739;28;20035;-72
2023/01/03 00:05:28;;;;;;;5.82;2.15;;;;;;;4.70;100.00;99960.94;4966664;28;20057;-73
2023/01/03 00:07:57;;;;;;;3.80;2.17;;;;;;;4.71;100.00;99967.78;4965201;28;20050;-74
2023/01/03 00:10:25;;;;;;;2.45;1.70;;;;;;;4.69;100.00;99969.41;4964402;28;20054;-73
2023/01/03 00:12:55;;;;;;;2.78;1.60;;;;;;;4.65;100.00;99982.94;4968090;28;20082;-72
2023/01/03 00:15:24;;;;;;;3.08;2.20;;;;;;;4.62;100.00;99990.47;4967491;28;20070;-74
2023/01/03 00:17:54;;;;;;;4.60;2.25;;;;;;;4.61;100.00;99988.75;4968834;28;20062;-72
2023/01/03 00:20:23;;;;;;;3.40;1.80;;;;;;;4.62;100.00;100000.72;4974896;28;20054;-73
2023/01/03 00:22:52;;;;;;;3.05;1.85;;;;;;;4.57;100.00;99999.66;4966155;28;20050;-73
2023/01/03 00:25:20;;;;;;;3.50;2.05;;;;;;;4.54;100.00;99994.44;4968635;28;20046;-73
2023/01/03 00:27:49;;;;;;;2.80;1.90;;;;;;;4.55;100.00;99994.47;4967604;28;20109;-74
2023/01/03 00:30:19;;;;;;;2.83;1.75;;;;;;;4.56;100.00;100000.50;4966428;28;20520;-73
2023/01/03 00:32:48;;;;;;;3.95;2.03;;;;;;;4.59;100.00;99977.53;4968043;28;20051;-74
2023/01/03 00:35:16;;;;;;;3.35;1.80;;;;;;;4.62;100.00;99975.09;4967633;28;20051;-73
2023/01/03 00:37:45;;;;;;;2.72;1.70;;;;;;;4.65;100.00;99976.91;4967043;28;20054;-72
2023/01/03 00:40:14;;;;;;;4.03;2.25;;;;;;;4.68;100.00;99972.78;4962629;28;20058;-73
2023/01/03 00:45:31;;;;;;;3.58;1.67;;;;;;;4.65;100.00;99961.53;4937804;28;20055;-73
2023/01/03 00:48:00;;;;;;;3.88;2.22;;;;;;;4.61;100.00;99955.44;4955300;28;20548;-74
2023/01/03 00:50:28;;;;;;;2.30;1.70;;;;;;;4.58;100.00;99960.41;4952870;28;20050;-74
2023/01/03 00:52:57;;;;;;;3.58;1.60;;;;;;;4.55;100.00;99955.16;4961840;28;20057;-75
2023/01/03 00:55:25;;;;;;;4.72;2.72;;;;;;;4.48;100.00;99955.75;4971498;28;20528;-73
2023/01/03 00:57:54;;;;;;;3.47;1.92;;;;;;;4.50;100.00;99961.81;4966675;28;20540;-70
2023/01/03 01:00:29;;;;;;;4.18;2.20;;;;;;;4.53;100.00;99951.66;4963759;28;20058;-69
2023/01/03 01:03:00;;;;;;;3.92;2.55;;;;;;;4.60;100.00;99951.09;4972554;28;20794;-71
2023/01/03 01:05:30;;;;;;;3.90;2.47;;;;;;;4.63;100.00;99943.56;4964949;28;20062;-70
2023/01/03 01:07:59;;;;;;;5.05;2.85;;;;;;;4.68;100.00;99941.19;4965222;28;20106;-71
2023/01/03 01:10:27;;;;;;;4.90;2.72;;;;;;;4.74;100.00;99937.19;4969187;28;20065;-71
2023/01/03 01:12:56;;;;;;;4.97;2.78;;;;;;;4.76;100.00;99945.78;4972667;28;20062;-71
2023/01/03 01:15:25;;;;;;;6.57;2.88;;;;;;;4.83;100.00;99947.78;4969704;28;20046;-71
2023/01/03 01:17:54;;;;;;;3.05;2.35;;;;;;;4.87;100.00;99943.63;4968135;28;20077;-70
2023/01/03 01:20:24;;;;;;;5.60;2.70;;;;;;;4.87;100.00;99937.66;4966379;28;20054;-71
2023/01/03 01:22:52;;;;;;;4.03;2.55;;;;;;;4.83;100.00;99926.38;4968934;28;20054;-73
2023/01/03 01:25:21;;;;;;;3.45;2.13;;;;;;;4.80;100.00;99931.41;4969702;28;20666;-73
2023/01/03 01:27:49;;;;;;;5.47;2.60;;;;;;;4.75;100.00;99915.84;4965353;28;20053;-73
2023/01/03 01:30:18;;;;;;;5.18;2.75;;;;;;;4.75;100.00;99925.22;4967845;28;20497;-73
2023/01/03 01:32:47;;;;;;;4.70;2.70;;;;;;;4.71;100.00;99924.22;4971042;28;20531;-73
2023/01/03 01:35:15;;;;;;;6.35;3.55;;;;;;;4.68;100.00;99916.41;4970557;28;20618;-71
2023/01/03 01:37:45;;;;;;;5.18;2.53;;;;;;;4.69;100.00;99930.97;4970676;28;20113;-70
2023/01/03 01:40:14;;;;;;;6.70;2.92;;;;;;;4.71;100.00;99926.78;4971824;28;20061;-70
2023/01/03 01:45:28;;;;;;;5.53;2.97;;;;;;;4.75;100.00;99918.41;4972744;28;20053;-72
2023/01/03 01:48:00;;;;;;;7.47;2.80;;;;;;;4.81;100.00;99912.63;4952935;28;20567;-72
2023/01/03 01:50:35;;;;;;;5.22;2.88;;;;;;;4.85;100.00;99908.50;4963834;28;20416;-72
2023/01/03 01:53:12;;;;;;;4.78;2.65;;;;;;;4.88;100.00;99934.25;4971727;28;20055;-75
2023/01/03 01:55:45;;;;;;;5.70;2.78;;;;;;;4.91;100.00;99924.13;4968595;28;20051;-72
2023/01/03 01:58:15;;;;;;;6.28;3.63;;;;;;;4.96;100.00;99908.09;4967701;28;20058;-72
2023/01/03 02:00:44;;;;;;;5.22;2.97;;;;;;;4.92;100.00;99905.38;4968500;28;20062;-73
2023/01/03 02:03:14;;;;;;;5.13;2.40;;;;;;;4.92;100.00;99915.63;4967372;28;20058;-70
2023/01/03 02:05:45;;;;;;;7.45;3.17;;;;;;;4.92;100.00;99923.31;4964050;28;20051;-72
2023/01/03 02:08:16;;;;;;;6.60;3.40;;;;;;;4.94;100.00;99924.25;4967702;28;20067;-69
2023/01/03 02:11:09;;;;;;;3.80;2.38;;;;;;;4.97;100.00;99912.44;4967922;28;20050;-73
2023/01/03 02:13:42;;;;;;;;;;;;;;;5.00;100.00;99898.84;4966765;28;20565;-70
2023/01/03 02:16:21;;;;;;;7.43;2.60;;;;;;;5.03;100.00;99907.53;4967703;28;20451;-71
2023/01/03 02:19:05;;;;;;;6.70;2.97;;;;;;;5.06;100.00;99919.56;4971206;28;20046;-70
2023/01/03 02:22:11;;;;;;;6.70;3.03;;;;;;;5.12;100.00;99909.56;4970186;28;20059;-71
2023/01/03 02:25:24;;;;;;;4.45;2.83;;;;;;;5.18;100.00;99896.97;4968682;28;20097;-71
2023/01/03 02:28:30;;;;;;;5.60;2.53;;;;;;;5.18;100.00;99920.06;4968196;28;20667;-70
2023/01/03 02:31:07;;;;;;;8.65;2.65;;;;;;;5.23;100.00;99925.38;4964295;28;20630;-70
2023/01/03 02:33:42;;;;;;;4.72;2.28;;;;;;;5.30;100.00;99918.78;4971515;28;20563;-71
2023/01/03 02:36:20;;;;;;;5.45;2.00;;;;;;;5.33;100.00;99934.28;4970434;28;20045;-71
2023/01/03 02:38:53;;;;;;;5.80;3.42;;;;;;;5.36;100.00;99935.28;4966338;28;20056;-72
2023/01/03 02:41:28;;;;;;;6.22;3.15;;;;;;;5.40;100.00;99925.97;4966700;28;20054;-71
2023/01/03 02:44:03;;;;;;;5.78;2.30;;;;;;;5.42;100.00;99922.66;4967831;28;20615;-72
2023/01/03 02:46:39;;;;;;;6.38;2.80;;;;;;;5.44;100.00;99930.41;4966525;28;20488;-72
2023/01/03 02:49:14;;;;;;;5.43;2.80;;;;;;;5.48;100.00;99918.59;4966404;28;20055;-72
2023/01/03 02:51:46;;;;;;;4.93;3.30;;;;;;;5.49;100.00;99931.44;4960310;28;20047;-72
2023/01/03 02:54:21;;;;;;;6.65;2.35;;;;;;;5.54;100.00;99945.31;4970248;28;20047;-73
2023/01/03 02:56:55;;;;;;;5.70;3.03;;;;;;;5.57;100.00;99940.31;4970700;28;20046;-73
2023/01/03 02:59:30;;;;;;;6.53;3.25;;;;;;;5.59;100.00;99937.78;4973150;28;20058;-73
2023/01/03 03:02:04;;;;;;;6.63;2.83;;;;;;;5.59;100.00;99942.91;4963814;28;20051;-73
2023/01/03 03:04:36;;;;;;;4.22;3.13;;;;;;;5.60;100.00;99950.69;4959705;28;20150;-71
2023/01/03 03:07:12;;;;;;;6.18;2.97;;;;;;;5.64;100.00;99943.97;4966474;28;20460;-72
2023/01/03 03:15:29;;;;;;;5.18;2.55;;;;;;;5.67;100.00;99942.38;4918161;29;20063;-73
2023/01/03 03:18:06;;;;;;;3.30;1.83;;;;;;;5.71;100.00;99952.78;4961733;28;20488;-72
2023/01/03 03:26:14;;;;;;;5.20;2.25;;;;;;;5.81;100.00;99954.84;4967804;28;20124;-73
2023/01/03 03:28:43;;;;;;;;;;;;;;;5.82;100.00;99954.03;4969455;28;20112;-72
2023/01/03 03:31:16;;;;;;;3.97;2.08;;;;;;;5.85;100.00;99956.69;4967736;28;19930;-73
2023/01/03 03:33:50;;;;;;;4.78;2.20;;;;;;;5.88;100.00;99956.78;4970210;28;20053;-72
2023/01/03 03:36:26;;;;;;;4.57;2.25;;;;;;;5.89;100.00;99961.13;4964224;28;20394;-72
2023/01/03 03:38:55;;;;;;;3.70;2.00;;;;;;;5.91;100.00;99964.63;4962825;28;20046;-73
2023/01/03 03:47:19;;;;;;;3.90;2.00;;;;;;;6.01;100.00;99948.75;4967019;28;20758;-72
2023/01/03 03:49:54;;;;;;;1.23;0.90;;;;;;;6.04;100.00;99953.97;4965097;28;20444;-75
2023/01/03 03:52:27;;;;;;;2.83;1.23;;;;;;;6.11;100.00;99944.78;4966268;28;20465;-73
2023/01/03 03:55:02;;;;;;;2.58;1.27;;;;;;;6.18;100.00;99954.44;4969158;28;20412;-76
2023/01/03 03:57:34;;;;;;;3.38;1.23;;;;;;;6.14;100.00;99938.88;4969756;28;20053;-71
2023/01/03 04:00:09;;;;;;;2.83;1.40;;;;;;;6.34;100.00;99953.28;4968627;28;20062;-74
2023/01/03 04:02:41;;;;;;;2.58;1.40;;;;;;;6.39;100.00;99953.44;4964235;28;20051;-77
2023/01/03 04:05:18;;;;;;;2.42;1.40;;;;;;;6.42;100.00;99964.69;4970786;28;20077;-77
2023/01/03 04:07:48;;;;;;;2.20;1.27;;;;;;;6.44;100.00;99959.63;4963867;28;20066;-75
2023/01/03 04:10:19;;;;;;;2.88;1.10;;;;;;;6.50;100.00;99965.84;4968766;28;20090;-75
2023/01/03 04:12:49;;;;;;;4.15;1.40;;;;;;;6.56;100.00;99965.16;4966037;28;20106;-74
2023/01/03 04:15:18;;;;;;;3.08;1.15;;;;;;;6.62;100.00;99969.59;4968437;28;20051;-70
2023/01/03 04:17:47;;;;;;;2.83;1.10;;;;;;;6.64;100.00;99970.53;4966125;28;20073;-75
2023/01/03 04:20:19;;;;;;;1.85;1.05;;;;;;;6.68;100.00;99980.97;4962935;28;20533;-73
2023/01/03 04:22:48;;;;;;;2.80;0.95;;;;;;;6.68;100.00;99986.09;4968303;28;20429;-72
2023/01/03 04:25:17;;;;;;;1.60;0.60;;;;;;;6.73;100.00;99981.13;4962431;28;20480;-75
2023/01/03 04:27:46;;;;;;;1.65;0.73;;;;;;;6.80;100.00;99990.78;4967358;28;20042;-74
2023/01/03 04:30:16;;;;;;;1.02;0.30;;;;;;;6.87;100.00;99989.28;4959592;28;20050;-75
2023/01/03 04:32:45;;;;;;;0.47;0.30;;;;;;;6.90;100.00;100017.69;4965846;28;20050;-77
2023/01/03 04:35:21;;;;;;;1.25;0.28;;;;;;;6.93;100.00;99990.34;4968404;28;20043;-76
2023/01/03 04:37:50;;;;;;;0.98;0.20;;;;;;;7.05;100.00;99991.56;4966934;28;20057;-75
2023/01/03 04:40:19;;;;;;;3.08;0.35;;;;;;;7.07;100.00;100003.63;4966069;28;20062;-72
2023/01/03 04:45:34;;;;;;;0.77;0.30;;;;;;;7.10;100.00;100001.19;4964269;28;20655;-74
2023/01/03 04:48:04;;;;;;;0.70;0.40;;;;;;;7.19;100.00;100008.28;4961659;28;20105;-73
2023/01/03 04:50:36;;;;;;;2.38;0.30;;;;;;;7.18;100.00;100009.13;4962479;28;20523;-73
2023/01/03 04:53:16;;;;;;;0.28;0.20;;;;;;;7.16;100.00;100009.91;4961897;28;20042;-78
2023/01/03 04:55:48;;;;;;;0.35;0.20;;;;;;;7.22;100.00;100015.25;4956785;28;20059;-74
2023/01/03 04:58:30;;;;;;;0.55;0.30;;;;;;;7.25;100.00;100025.63;4963113;28;20043;-75
2023/01/03 05:01:02;;;;;;;0.28;0.25;;;;;;;7.32;100.00;100013.00;4965481;28;20092;-74
2023/01/03 05:03:39;;;;;;;0.45;0.22;;;;;;;7.37;100.00;100030.28;4960821;28;20696;-74
2023/01/03 05:06:13;;;;;;;1.20;0.40;;;;;;;7.37;100.00;100038.88;4958315;28;20058;-76
2023/01/03 05:08:42;;;;;;;1.55;0.52;;;;;;;7.33;100.00;100030.19;4962981;28;20115;-72
2023/01/03 05:11:14;;;;;;;0.98;0.28;;;;;;;7.33;100.00;100042.19;4964150;28;20054;-74
2023/01/03 05:13:43;;;;;;;0.45;0.30;;;;;;;7.41;100.00;100048.44;4959785;28;20078;-74
2023/01/03 05:16:14;;;;;;;0.50;0.15;;;;;;;7.41;100.00;100050.16;4956549;28;20074;-75
2023/01/03 05:18:43;;;;;;;0.30;0.25;;;;;;;7.44;100.00;100055.38;4960632;28;20055;-72
2023/01/03 05:27:00;;;;;;;0.30;0.20;;;;;;;7.54;100.00;100070.28;4962720;28;20082;-74
2023/01/03 05:29:30;;;;;;;0.82;0.40;;;;;;;7.52;100.00;100075.38;4957799;28;20055;-76
2023/01/03 05:31:59;;;;;;;1.23;0.30;;;;;;;7.54;100.00;100067.72;4960142;28;20043;-74
2023/01/03 05:34:32;;;;;;;0.20;0.10;;;;;;;7.54;100.00;100067.72;4963544;28;20057;-74
2023/01/03 05:37:03;;;;;;;0.22;0.10;;;;;;;7.54;100.00;100084.03;4964309;28;20106;-77
2023/01/03 05:39:35;;;;;;;0.38;0.38;;;;;;;7.49;100.00;100095.91;4959735;28;20051;-76
2023/01/03 05:42:07;;;;;;;0.60;0.30;;;;;;;7.45;100.00;100080.31;4963004;28;20465;-73
2023/01/03 05:44:36;;;;;;;2.72;0.20;;;;;;;7.51;100.00;100098.50;4967250;28;20126;-72
2023/01/03 05:47:06;;;;;;;2.53;0.40;;;;;;;7.49;100.00;100093.31;4969189;28;20054;-74
2023/01/03 05:49:35;;;;;;;0.73;0.20;;;;;;;7.40;100.00;100089.56;4969360;28;20067;-74
2023/01/03 05:52:06;;;;;;;0.70;0.20;;;;;;;7.50;100.00;100110.50;4972210;28;20050;-74
2023/01/03 05:54:42;;;;;;;0.60;0.30;;;;;;;7.48;100.00;100106.13;4968386;28;20075;-76
2023/01/03 05:57:11;;;;;;;0.25;0.10;;;;;;;7.46;100.00;100108.66;4964780;28;20082;-73
2023/01/03 05:59:41;;;;;;;0.20;0.20;;;;;;;7.51;100.00;100121.66;4973639;28;20533;-72
2023/01/03 06:02:10;;;;;;;0.50;0.20;;;;;;;7.51;100.00;100126.81;4966916;28;20053;-73
2023/01/03 06:04:39;;;;;;;0.38;0.30;;;;;;;7.55;100.00;100131.25;4959107;28;20081;-73
2023/01/03 06:07:10;;;;;;;0.43;0.30;;;;;;;7.59;100.00;100125.38;4971722;28;20047;-73
2023/01/03 06:09:39;;;;;;;0.38;0.22;;;;;;;7.61;100.00;100123.72;4966747;28;20082;-74
2023/01/03 06:12:08;;;;;;;4.00;0.35;;;;;;;7.65;100.00;100134.97;4966447;28;20054;-73
2023/01/03 06:14:37;;;;;;;0.43;0.32;;;;;;;7.67;100.00;100141.03;4972660;28;20053;-73
2023/01/03 06:19:52;;;;;;;0.25;0.20;;;;;;;7.72;100.00;100153.25;4968642;28;20057;-74
2023/01/03 06:22:23;;;;;;;0.20;0.10;;;;;;;7.74;100.00;100149.03;4967170;28;20059;-74
2023/01/03 06:24:53;;;;;;;0.80;0.30;;;;;;;7.74;100.00;100156.75;4974077;28;20045;-72
2023/01/03 06:27:22;;;;;;;0.73;0.32;;;;;;;7.62;100.00;100161.50;4964143;28;20090;-73
2023/01/03 06:29:51;;;;;;;3.10;0.38;;;;;;;7.54;100.00;100160.41;4963818;28;20078;-74
2023/01/03 06:32:20;;;;;;;1.48;0.55;;;;;;;7.49;100.00;100164.50;4969163;28;20047;-76
2023/01/03 06:34:50;;;;;;;0.65;0.20;;;;;;;7.42;100.00;100167.69;4973740;28;20172;-75
2023/01/03 06:37:24;;;;;;;0.20;0.10;;;;;;;7.42;100.00;100172.84;4973285;28;20058;-74
2023/01/03 06:39:52;;;;;;;1.38;0.40;;;;;;;7.44;100.00;100176.34;4973906;28;20625;-75
2023/01/03 06:53:31;;;;;;;1.00;0.30;;;;;;;7.36;100.00;100183.84;4969005;28;20137;-75
2023/01/03 06:56:00;;;;;;;1.30;0.47;;;;;;;7.42;100.00;100193.44;4968760;28;20045;-73
2023/01/03 06:58:29;;;;;;;1.10;0.20;;;;;;;7.47;100.00;100199.63;4968391;28;20088;-73
2023/01/03 07:01:01;;;;;;;2.38;0.40;;;;;;;7.52;100.00;100208.38;4970004;28;20555;-73
2023/01/03 07:03:29;;;;;;;2.55;0.43;;;;;;;7.53;100.00;100207.53;4965733;28;20051;-74
2023/01/03 07:05:58;;;;;;;0.82;0.35;;;;;;;7.55;100.00;100219.63;4971269;28;20535;-74
2023/01/03 07:08:28;;;;;;;0.85;0.50;;;;;;;7.59;100.00;100230.94;4966575;28;20138;-73
2023/01/03 07:10:57;;;;;;;0.73;0.28;;;;;;;7.60;100.00;100224.94;4966770;28;20050;-74
2023/01/03 07:16:15;;;;;;;2.53;0.30;;;;;;;7.67;100.00;100239.78;4967757;28;20430;-73
2023/01/03 07:18:44;;;;;;;1.73;0.32;;;;;;;7.69;100.00;100243.25;4967578;28;20069;-72
2023/01/03 07:21:13;;;;;;;1.52;0.45;;;;;;;7.72;100.00;100238.22;4962831;28;20062;-74
2023/01/03 07:23:43;;;;;;;0.57;0.20;;;;;;;7.75;100.00;100238.31;4970132;28;20433;-73
2023/01/03 07:26:11;;;;;;;1.88;0.40;;;;;;;7.78;100.00;100237.53;4966167;28;20055;-74
2023/01/03 07:28:40;;;;;;;2.17;0.50;;;;;;;7.80;100.00;100238.47;4966911;28;21133;-74
2023/01/03 07:31:09;;;;;;;2.38;0.50;;;;;;;7.82;100.00;100235.97;4968117;28;20062;-73
2023/01/03 07:33:39;;;;;;;0.88;0.40;;;;;;;7.80;100.00;100241.06;4970140;28;20047;-75
2023/01/03 07:36:10;;;;;;;0.73;0.50;;;;;;;7.80;100.00;100238.47;4960483;28;20065;-74
2023/01/03 07:38:39;;;;;;;2.88;0.50;;;;;;;7.82;100.00;100238.53;4966859;28;20058;-74
2023/01/03 07:41:11;;;;;;;2.85;0.85;;;;;;;7.78;100.00;100240.13;4964329;28;20042;-74
2023/01/03 07:43:41;;;;;;;1.55;0.40;;;;;;;7.75;100.00;100243.47;4961915;28;20523;-74
2023/01/03 07:46:19;;;;;;;3.35;0.57;;;;;;;7.76;100.00;100244.34;4968656;28;20047;-74
2023/01/03 07:48:49;;;;;;;1.30;0.52;;;;;;;7.79;100.00;100248.72;4971596;28;20059;-73
2023/01/03 07:51:19;;;;;;;2.25;1.10;;;;;;;7.82;100.00;100254.00;4970166;28;20595;-73
2023/01/03 07:53:51;;;;;;;1.30;0.32;;;;;;;7.82;100.00;100259.13;4964923;28;20047;-73
2023/01/03 07:56:23;;;;;;;1.52;0.70;;;;;;;7.81;100.00;100266.00;4969612;28;20047;-73
2023/01/03 07:58:52;;;;;;;1.30;0.63;;;;;;;7.73;100.00;100263.16;4964989;28;20710;-73
2023/01/03 08:01:22;;;;;;;4.82;0.40;;;;;;;7.74;100.00;100264.91;4969755;28;20421;-73
2023/01/03 08:03:51;;;;;;;2.15;0.55;;;;;;;7.67;100.00;100251.75;4969347;28;20055;-73
2023/01/03 08:06:22;;;;;;;4.10;0.73;;;;;;;7.70;100.00;100265.63;4968009;28;20050;-75
2023/01/03 08:14:20;;;;;;;1.05;0.50;;;;;;;7.65;100.00;100269.75;4969715;28;20514;-73
2023/01/03 08:16:49;;;;;;;3.35;0.50;;;;;;;7.64;100.00;100267.13;4971476;28;20058;-74
2023/01/03 08:19:17;;;;;;;1.15;0.60;;;;;;;7.59;100.00;100261.81;4974459;28;20050;-75
2023/01/03 08:21:46;;;;;;;2.83;0.70;;;;;;;7.56;100.00;100266.88;4967906;28;20061;-75
2023/01/03 08:24:14;;;;;;;3.83;0.50;;;;;;;7.52;100.00;100270.16;4975138;28;20043;-75
2023/01/03 08:26:45;;;;;;;1.10;0.40;;;;;;;7.49;100.00;100272.63;4963118;28;20706;-74
2023/01/03 08:29:13;;;;;;;1.95;0.63;;;;;;;7.46;100.00;100283.69;4970794;28;20720;-73
2023/01/03 08:31:45;;;;;;;4.65;0.80;;;;;;;7.48;100.00;100286.31;4968741;28;20686;-73
2023/01/03 08:34:15;;;;;;;4.75;0.60;;;;;;;7.49;100.00;100280.34;4970512;28;20122;-74
2023/01/03 08:36:48;;;;;;;4.28;0.70;;;;;;;7.46;100.00;100280.25;4970181;28;20532;-75
2023/01/03 08:39:19;;;;;;;2.47;0.30;;;;;;;7.45;100.00;100281.94;4970755;28;20540;-73
2023/01/03 08:41:53;;;;;;;1.23;0.65;;;;;;;7.42;100.00;100281.84;4967130;28;20551;-73
2023/01/03 08:44:22;;;;;;;2.63;0.82;;;;;;;7.40;100.00;100283.50;4965700;28;20050;-74
2023/01/03 08:46:53;;;;;;;2.15;0.60;;;;;;;7.37;100.00;100280.78;4972793;28;20061;-73
2023/01/03 08:49:22;;;;;;;1.75;0.70;;;;;;;7.36;100.00;100285.91;4968829;28;20057;-73
2023/01/03 08:51:51;;;;;;;1.15;0.90;;;;;;;7.36;100.00;100275.63;4968032;28;20696;-73
2023/01/03 08:54:19;;;;;;;1.60;0.80;;;;;;;7.33;100.00;100286.69;4969115;28;20452;-73
2023/01/03 08:56:49;;;;;;;2.08;0.60;;;;;;;7.30;100.00;100276.25;4969677;28;20470;-74
2023/01/03 08:59:18;;;;;;;2.85;0.80;;;;;;;7.36;100.00;100291.94;4970932;28;20062;-75
2023/01/03 09:01:46;;;;;;;1.45;0.75;;;;;;;7.33;100.00;100291.84;4947986;28;20541;-73
2023/01/03 09:04:15;;;;;;;3.78;1.02;;;;;;;7.34;100.00;100289.28;4951848;28;20076;-73
2023/01/03 09:06:44;;;;;;;5.93;1.05;;;;;;;7.39;100.00;100301.44;4953281;28;20131;-73
2023/01/03 09:09:12;;;;;;;1.83;0.63;;;;;;;7.41;100.00;100297.25;4948700;28;20043;-73
2023/01/03 09:11:41;;;;;;;1.30;0.90;;;;;;;7.43;100.00;100300.75;4951517;28;20043;-73
2023/01/03 09:14:11;;;;;;;2.05;0.40;;;;;;;7.47;100.00;100294.88;4948647;28;20494;-73
2023/01/03 09:16:39;;;;;;;4.35;0.88;;;;;;;7.48;100.00;100312.94;4954419;28;20043;-73
2023/01/03 09:19:08;;;;;;;1.77;0.60;;;;;;;7.49;100.00;100316.38;4958787;28;20563;-73
2023/01/03 09:21:37;;;;;;;1.02;0.40;;;;;;;7.50;100.00;100325.88;4951555;28;20059;-74
2023/01/03 09:24:06;;;;;;;1.75;0.77;;;;;;;7.46;100.00;100319.72;4952770;28;20708;-74
2023/01/03 09:26:34;;;;;;;1.67;0.68;;;;;;;7.44;100.00;100317.94;4950540;28;20110;-73
2023/01/03 09:29:03;;;;;;;1.73;0.60;;;;;;;7.38;100.00;100304.88;4955771;28;20051;-73
2023/01/03 09:31:35;;;;;;;3.00;0.90;;;;;;;7.43;100.00;100321.34;4956584;28;20131;-73
2023/01/03 09:34:04;;;;;;;1.70;0.65;;;;;;;7.43;100.00;100323.91;4953992;28;20046;-73
2023/01/03 09:36:33;;;;;;;0.93;0.50;;;;;;;7.43;100.00;100329.06;4957133;28;20142;-73
2023/01/03 09:39:02;;;;;;;2.88;0.52;;;;;;;7.37;100.00;100318.53;4951961;28;20059;-75
2023/01/03 09:41:31;;;;;;;1.20;0.70;;;;;;;7.36;100.00;100324.53;4951358;28;20054;-74
2023/01/03 09:44:02;;;;;;;0.98;0.50;;;;;;;7.31;100.00;100330.38;4949017;28;20051;-74
2023/01/03 09:46:34;;;;;;;0.63;0.43;;;;;;;7.28;100.00;100335.44;4946762;28;20070;-73
2023/01/03 09:49:04;;;;;;;1.10;0.68;;;;;;;7.27;100.00;100333.66;4959365;28;20066;-74
2023/01/03 10:03:46;;;;;;;4.07;0.80;;;;;;;7.20;100.00;100352.28;4950309;28;20057;-73
2023/01/03 10:06:29;;;;;;;1.23;0.70;;;;;;;7.21;100.00;100354.00;4969499;28;20051;-72
2023/01/03 10:09:14;;;;;;;1.95;0.60;;;;;;;7.20;100.00;100359.13;4969610;28;20054;-72
2023/01/03 10:11:53;;;;;;;0.88;0.60;;;;;;;7.17;100.00;100359.88;4968049;28;20062;-72
2023/01/03 10:14:33;;;;;;;1.48;0.50;;;;;;;7.18;100.00;100361.63;4969888;28;20417;-73
2023/01/03 10:17:10;;;;;;;2.95;0.77;;;;;;;7.16;100.00;100360.69;4971566;28;20528;-73
2023/01/03 10:20:15;;;;;;;0.80;0.40;;;;;;;7.14;100.00;100365.75;4969707;28;20043;-74
2023/01/03 10:22:44;;;;;;;1.65;0.75;;;;;;;7.13;100.00;100371.75;4969131;28;20054;-73
2023/01/03 10:25:16;;;;;;;1.42;0.70;;;;;;;7.16;100.00;100370.97;4971099;28;20440;-73
2023/01/03 10:27:47;;;;;;;3.90;0.95;;;;;;;7.16;100.00;100365.84;4971374;28;20054;-73
2023/01/03 10:30:18;;;;;;;2.05;0.60;;;;;;;7.17;100.00;100370.19;4970131;28;20050;-73
2023/01/03 10:33:08;;;;;;;1.63;0.77;;;;;;;7.20;100.00;100371.97;4970280;28;20054;-73
2023/01/03 10:35:38;;;;;;;2.05;0.60;;;;;;;7.24;100.00;100378.97;4968081;28;20051;-73
2023/01/03 10:38:07;;;;;;;1.48;0.82;;;;;;;7.24;100.00;100379.88;4966723;28;20055;-73
2023/01/03 10:40:40;;;;;;;1.90;0.50;;;;;;;7.26;100.00;100380.81;4968708;28;20055;-73
2023/01/03 10:43:17;;;;;;;0.70;0.55;;;;;;;7.25;100.00;100375.59;4967932;28;20066;-73
2023/01/03 10:45:55;;;;;;;1.38;0.50;;;;;;;7.25;100.00;100386.75;4968766;28;20053;-73
2023/01/03 10:48:24;;;;;;;2.70;0.70;;;;;;;7.24;100.00;100386.69;4968014;28;20082;-72
2023/01/03 10:50:54;;;;;;;3.30;0.50;;;;;;;7.23;100.00;100385.81;4962251;28;20065;-73
2023/01/03 10:53:24;;;;;;;1.30;0.60;;;;;;;7.24;100.00;100389.25;4970699;28;20043;-72
2023/01/03 10:55:55;;;;;;;0.75;0.30;;;;;;;7.26;100.00;100392.78;4967930;28;20070;-73
2023/01/03 10:58:25;;;;;;;2.50;0.50;;;;;;;7.25;100.00;100386.75;4965916;28;20070;-73
2023/01/03 11:01:10;;;;;;;0.82;0.32;;;;;;;7.23;100.00;100388.41;4971582;28;20062;-74
2023/01/03 11:03:43;;;;;;;1.70;0.50;;;;;;;7.24;100.00;100396.97;4969660;28;20066;-74
2023/01/03 11:06:16;;;;;;;2.08;0.50;;;;;;;7.26;100.00;100387.63;4970340;28;20046;-73
2023/01/03 11:08:47;;;;;;;0.68;0.50;;;;;;;7.26;100.00;100398.81;4970129;28;20138;-73
2023/01/03 11:11:31;;;;;;;1.02;0.43;;;;;;;7.26;100.00;100398.81;4969552;28;20051;-73
2023/01/03 11:14:27;;;;;;;1.45;0.50;;;;;;;7.28;100.00;100399.75;4964524;28;20047;-74
2023/01/03 11:16:58;;;;;;;1.73;0.70;;;;;;;7.29;100.00;100398.06;4934130;28;20416;-74
2023/01/03 11:19:29;;;;;;;0.88;0.40;;;;;;;7.30;100.00;100398.09;4963419;28;20073;-74
2023/01/03 11:22:06;;;;;;;1.23;0.60;;;;;;;7.32;100.00;100403.31;4975749;28;20689;-74
2023/01/03 11:24:59;;;;;;;2.25;0.40;;;;;;;7.31;100.00;100402.44;4964152;28;20055;-75
2023/01/03 11:28:08;;;;;;;1.27;0.47;;;;;;;7.28;100.00;100410.06;4966142;28;20055;-75
2023/01/03 11:30:43;;;;;;;1.58;0.40;;;;;;;7.25;100.00;100397.06;4962216;28;20391;-75
2023/01/03 11:33:32;;;;;;;0.93;0.43;;;;;;;7.26;100.00;100403.97;4960188;28;20051;-73
2023/01/03 11:36:16;;;;;;;4.38;0.75;;;;;;;7.24;100.00;100408.19;4963939;28;20079;-74
2023/01/03 11:38:58;;;;;;;1.65;0.20;;;;;;;7.25;100.00;100402.19;4968841;28;20110;-74
2023/01/03 11:41:42;;;;;;;1.88;0.43;;;;;;;7.25;100.00;100401.31;4969686;28;20055;-74
2023/01/03 11:44:42;;;;;;;1.48;0.50;;;;;;;7.22;100.00;100402.09;4968866;28;20154;-75
2023/01/03 11:47:21;;;;;;;3.40;0.55;;;;;;;7.18;100.00;100404.50;4962792;28;20055;-74
2023/01/03 11:50:03;;;;;;;1.83;0.47;;;;;;;7.17;100.00;100395.91;4967547;28;20043;-74
2023/01/03 11:52:40;;;;;;;1.85;0.60;;;;;;;7.18;100.00;100394.19;4966617;28;20050;-75
2023/01/03 11:55:51;;;;;;;1.83;0.60;;;;;;;7.17;100.00;100395.00;4968901;28;20046;-75
2023/01/03 11:58:53;;;;;;;3.65;0.45;;;;;;;7.14;100.00;100390.63;4967492;28;20113;-74
2023/01/03 12:01:36;;;;;;;5.30;0.77;;;;;;;7.12;100.00;100389.69;4971341;28;21065;-74
2023/01/03 12:04:25;;;;;;;1.48;0.30;;;;;;;7.12;100.00;100382.88;4963856;28;20058;-74
2023/01/03 12:07:08;;;;;;;1.10;0.60;;;;;;;7.13;100.00;100381.16;4962144;28;20061;-75
2023/01/03 12:09:46;;;;;;;0.55;0.20;;;;;;;7.10;100.00;100381.03;4967743;28;20540;-74
2023/01/03 12:12:29;;;;;;;3.13;0.40;;;;;;;7.09;100.00;100385.31;4956461;28;20154;-74
2023/01/03 12:15:03;;;;;;;0.55;0.20;;;;;;;7.09;100.00;100381.88;4969789;28;20039;-75
2023/01/03 12:17:39;;;;;;;0.93;0.40;;;;;;;7.10;100.00;100388.75;4957338;28;20058;-75
2023/01/03 12:20:17;;;;;;;1.05;0.50;;;;;;;7.12;100.00;100380.31;4953845;28;20066;-75
2023/01/03 12:22:50;;;;;;;1.50;0.40;;;;;;;7.15;100.00;100384.69;4956181;28;20046;-74
2023/01/03 12:25:25;;;;;;;1.35;0.70;;;;;;;7.17;100.00;100379.56;4952275;28;20047;-74
2023/01/03 12:28:02;;;;;;;2.00;0.50;;;;;;;7.18;100.00;100377.06;4962684;28;20039;-75
2023/01/03 12:30:42;;;;;;;0.50;0.35;;;;;;;7.19;100.00;100386.53;4965401;28;20492;-74
2023/01/03 12:33:22;;;;;;;3.45;0.40;;;;;;;7.20;100.00;100383.16;4964947;28;20401;-74
2023/01/03 12:35:58;;;;;;;1.90;0.40;;;;;;;7.21;100.00;100378.88;4965242;28;20051;-74
2023/01/03 12:38:31;;;;;;;1.10;0.45;;;;;;;7.22;100.00;100376.38;4964618;28;20074;-74
2023/01/03 12:41:08;;;;;;;0.82;0.30;;;;;;;7.22;100.00;100381.50;4959087;28;20078;-76
2023/01/03 12:43:45;;;;;;;0.50;0.30;;;;;;;7.24;100.00;100381.53;4960853;28;20153;-73
2023/01/03 12:46:18;;;;;;;3.65;0.50;;;;;;;7.23;100.00;100385.81;4967659;28;20078;-73
2023/01/03 12:48:55;;;;;;;3.75;0.75;;;;;;;7.23;100.00;100384.94;4969602;28;20051;-74
2023/01/03 12:51:26;;;;;;;0.20;0.10;;;;;;;7.23;100.00;100390.97;4972698;28;20543;-74
2023/01/03 12:54:06;;;;;;;0.55;0.30;;;;;;;7.22;100.00;100396.94;4967710;28;20082;-74
2023/01/03 12:56:55;;;;;;;2.15;0.45;;;;;;;7.23;100.00;100398.69;4970805;28;20509;-73
2023/01/03 12:59:53;;;;;;;0.68;0.47;;;;;;;7.25;100.00;100397.06;4968869;28;20055;-73
2023/01/03 13:02:42;;;;;;;2.50;0.45;;;;;;;7.25;100.00;100391.91;4971690;28;20066;-74